Time;durP1;ratioP1;P1;durP2;ratioP2;P2;SDS_P1;SDS_P2;PMS_P1;PMS_P2;Temp;Humidity;BMP_temperature;BMP_pressure;BME280_temperature;BME280_humidity;BME280_pressure;Samples;Min_cycle;Max_cycle;Signal;HPM_P1;HPM_P2
2021/12/03 06:25:36;;;;;;;;;;;;;;;1.56;67.83;96783.44;4230883;27;11161;-67
2021/12/03 06:27:40;;;;;;;;;;;;;;;1.63;67.54;96781.94;4228596;28;5863;-68
2021/12/03 06:29:41;;;;;;;;;;;;;;;1.65;67.17;96780.00;4228536;28;6308;-68
2021/12/03 06:31:43;;;;;;;;;;;;;;;1.73;67.19;96787.13;4227897;28;6197;-67
2021/12/03 06:33:44;;;;;;;;;;;;;;;1.75;67.12;96783.44;4231027;28;5624;-67
2021/12/03 06:35:47;;;;;;;;;;;;;;;1.69;66.73;96790.97;4208330;28;5650;-67
2021/12/03 06:37:50;;;;;;;;;;;;;;;1.81;66.94;96778.59;4225339;28;5088;-68
2021/12/03 06:39:52;;;;;;;;;;;;;;;1.82;66.90;96786.31;4232894;28;7616;-68
2021/12/03 06:41:53;;;;;;;;;;;;;;;1.61;66.90;96786.47;4205510;28;5761;-67
2021/12/03 06:43:57;;;;;;;;;;;;;;;1.60;67.37;96781.38;4217478;28;5616;-67
2021/12/03 06:45:59;;;;;;;;;;;;;;;1.53;66.88;96786.31;4213027;28;5789;-68
2021/12/03 06:48:01;;;;;;;;;;;;;;;1.33;68.19;96782.88;4197952;28;5634;-67
2021/12/03 06:50:05;;;;;;;;;;;;;;;1.41;68.28;96788.22;4215646;28;5776;-67
2021/12/03 06:52:11;;;;;;;;;;;;;;;1.57;67.69;96792.88;4215582;28;5830;-67
2021/12/03 06:54:14;;;;;;;;;;;;;;;1.49;67.16;96794.56;4208627;28;5687;-67
2021/12/03 06:56:22;;;;;;;;;;;;;;;1.39;67.84;96789.34;4216303;28;5627;-67
2021/12/03 06:58:24;;;;;;;;;;;;;;;1.14;66.77;96795.91;4198328;28;5186;-67
2021/12/03 07:00:26;;;;;;;;;;;;;;;0.99;67.68;96792.81;4232793;28;6324;-68
2021/12/03 07:02:27;;;;;;;;;;;;;;;1.01;67.71;96793.50;4214755;28;5640;-67
2021/12/03 07:04:29;;;;;;;;;;;;;;;0.96;67.97;96793.09;4214602;28;5639;-67
2021/12/03 07:06:31;;;;;;;;;;;;;;;1.12;67.64;96793.41;4232624;28;5608;-67
2021/12/03 07:08:32;;;;;;;;;;;;;;;1.02;67.49;96805.59;4232758;28;5701;-67
2021/12/03 07:10:35;;;;;;;;;;;;;;;0.93;67.51;96793.38;4232108;28;5597;-67
2021/12/03 07:12:37;;;;;;;;;;;;;;;0.93;67.31;96793.38;4215723;28;5624;-67
2021/12/03 07:14:38;;;;;;;;;;;;;;;0.83;67.99;96797.72;4197716;28;5755;-67
2021/12/03 07:16:42;;;;;;;;;;;;;;;0.91;67.09;96797.91;4215849;28;5743;-67
2021/12/03 07:18:43;;;;;;;;;;;;;;;1.04;67.49;96801.06;4201328;28;5812;-67
2021/12/03 07:20:45;;;;;;;;;;;;;;;1.23;67.11;96799.44;4209004;28;5665;-67
2021/12/03 07:22:48;;;;;;;;;;;;;;;1.12;66.72;96797.78;4190049;28;6348;-68
2021/12/03 07:24:49;;;;;;;;;;;;;;;1.28;66.62;96803.31;4213705;28;5627;-67
2021/12/03 07:26:51;;;;;;;;;;;;;;;1.20;65.98;96810.13;4207192;28;5636;-68
2021/12/03 07:28:54;;;;;;;;;;;;;;;1.24;66.41;96807.13;4182761;28;5742;-67
2021/12/03 07:30:56;;;;;;;;;;;;;;;1.27;65.58;96809.47;4220934;28;5740;-67
2021/12/03 07:32:58;;;;;;;;;;;;;;;1.14;65.85;96806.31;4207551;28;5774;-67
2021/12/03 07:35:00;;;;;;;;;;;;;;;0.98;66.47;96798.16;4203927;28;5616;-67
2021/12/03 07:37:02;;;;;;;;;;;;;;;1.14;65.70;96801.91;4186182;28;5768;-67
2021/12/03 07:39:04;;;;;;;;;;;;;;;1.08;66.11;96807.66;4187771;28;5691;-67
2021/12/03 07:41:06;;;;;;;;;;;;;;;1.10;65.65;96802.31;4202931;28;5632;-67
2021/12/03 07:43:08;;;;;;;;;;;;;;;1.14;65.63;96807.13;4184900;28;5936;-67
2021/12/03 07:45:14;;;;;;;;;;;;;;;1.26;65.04;96801.81;4215371;28;5729;-67
2021/12/03 07:47:16;;;;;;;;;;;;;;;1.22;65.22;96808.22;4195677;28;5632;-67
2021/12/03 07:49:18;;;;;;;;;;;;;;;1.15;65.40;96808.78;4214217;28;5611;-67
2021/12/03 07:51:20;;;;;;;;;;;;;;;1.16;65.41;96812.19;4205672;28;5636;-67
2021/12/03 07:53:23;;;;;;;;;;;;;;;1.35;65.48;96814.81;4185375;28;5650;-68
2021/12/03 07:55:25;;;;;;;;;;;;;;;1.45;65.53;96817.44;4190184;28;5714;-68
2021/12/03 07:57:27;;;;;;;;;;;;;;;1.54;65.46;96814.00;4211600;28;5808;-67
2021/12/03 07:59:28;;;;;;;;;;;;;;;1.35;65.63;96814.81;4205177;28;5764;-67
2021/12/03 08:01:30;;;;;;;;;;;;;;;1.51;65.26;96824.72;4215970;28;5624;-67
2021/12/03 08:03:32;;;;;;;;;;;;;;;1.48;65.06;96829.38;4216388;28;5616;-68
2021/12/03 08:05:34;;;;;;;;;;;;;;;1.55;63.69;96830.47;4185920;28;5821;-68
2021/12/03 08:07:36;;;;;;;;;;;;;;;1.31;63.70;96834.28;4203500;28;6304;-67
2021/12/03 08:09:38;;;;;;;;;;;;;;;1.09;62.72;96840.53;4208775;28;6307;-67
2021/12/03 08:11:39;;;;;;;;;;;;;;;1.15;64.08;96834.81;4210057;28;5636;-67
2021/12/03 08:13:41;;;;;;;;;;;;;;;1.22;63.20;96839.47;4205922;28;5658;-67
2021/12/03 08:15:43;;;;;;;;;;;;;;;1.19;63.69;96839.75;4185071;28;5790;-67
2021/12/03 08:17:49;;;;;;;;;;;;;;;1.35;63.29;96840.03;4185703;28;5658;-67
2021/12/03 08:19:50;;;;;;;;;;;;;;;1.48;63.04;96853.66;4185427;28;5774;-67
2021/12/03 08:21:52;;;;;;;;;;;;;;;1.36;60.82;96852.94;4169148;28;5669;-67
2021/12/03 08:23:54;;;;;;;;;;;;;;;1.41;61.54;96860.34;4202932;28;5969;-67
2021/12/03 08:25:55;;;;;;;;;;;;;;;1.48;62.00;96858.03;4203455;28;5628;-67
2021/12/03 08:27:57;;;;;;;;;;;;;;;1.51;61.02;96870.78;4185450;28;5646;-67
2021/12/03 08:29:59;;;;;;;;;;;;;;;1.53;59.46;96869.69;4202341;28;5632;-67
2021/12/03 08:32:01;;;;;;;;;;;;;;;1.65;61.08;96875.59;4209248;28;5700;-67
2021/12/03 08:34:02;;;;;;;;;;;;;;;1.40;58.98;96884.75;4185231;28;5729;-67
2021/12/03 08:36:04;;;;;;;;;;;;;;;1.62;60.42;96884.53;4213410;28;5721;-67
2021/12/03 08:38:06;;;;;;;;;;;;;;;1.94;60.15;96881.66;4210214;28;5632;-67
2021/12/03 08:40:12;;;;;;;;;;;;;;;1.92;59.56;96880.94;4208720;28;5806;-68
2021/12/03 08:42:14;;;;;;;;;;;;;;;1.71;60.18;96885.50;4185274;28;5705;-67
2021/12/03 08:44:16;;;;;;;;;;;;;;;1.85;60.25;96884.28;4172630;28;5661;-67
2021/12/03 08:46:28;;;;;;;;;;;;;;;1.91;60.18;96886.31;4206327;28;5644;-67
2021/12/03 08:48:37;;;;;;;;;;;;;;;1.97;59.87;96888.38;4184635;28;6328;-67
2021/12/03 08:50:49;;;;;;;;;;;;;;;1.98;59.61;96895.25;4217661;28;5631;-67
2021/12/03 08:53:10;;;;;;;;;;;;;;;2.06;59.57;96900.59;4206067;28;5748;-67
2021/12/03 08:55:12;;;;;;;;;;;;;;;2.07;59.79;96899.63;4167752;28;5672;-67
2021/12/03 08:57:35;;;;;;;;;;;;;;;1.99;59.78;96902.09;4202610;28;5691;-67
2021/12/03 08:59:37;;;;;;;;;;;;;;;1.96;59.63;96912.81;4198848;28;5625;-67
2021/12/03 09:01:39;;;;;;;;;;;;;;;1.85;59.32;96912.94;4214194;28;5620;-67
2021/12/03 09:03:40;;;;;;;;;;;;;;;1.70;58.50;96902.91;4215476;28;5640;-67
2021/12/03 09:05:44;;;;;;;;;;;;;;;1.56;59.31;96905.06;4214809;28;5609;-67
2021/12/03 09:07:46;;;;;;;;;;;;;;;1.66;61.58;96906.75;4219379;28;5724;-67
2021/12/03 09:09:53;;;;;;;;;;;;;;;1.88;61.75;96907.44;4204105;28;5789;-67
2021/12/03 09:11:55;;;;;;;;;;;;;;;1.88;61.25;96910.88;4208229;28;5635;-68
2021/12/03 09:13:59;;;;;;;;;;;;;;;1.84;61.71;96909.50;4202611;28;5711;-68
2021/12/03 09:16:05;;;;;;;;;;;;;;;1.84;61.29;96913.91;4202608;28;5631;-68
2021/12/03 09:24:39;;;;;;;;;;;;;;;2.03;61.04;96911.28;4202248;28;5721;-67
2021/12/03 09:26:42;;;;;;;;;;;;;;;1.95;60.91;96911.16;4202429;28;5648;-67
2021/12/03 09:28:48;;;;;;;;;;;;;;;2.07;61.53;96912.69;4184760;28;5670;-67
2021/12/03 09:30:50;;;;;;;;;;;;;;;2.14;61.26;96905.13;4202149;28;5631;-68
2021/12/03 09:32:57;;;;;;;;;;;;;;;2.14;60.70;96913.75;4202033;28;5640;-68
2021/12/03 09:35:02;;;;;;;;;;;;;;;2.21;60.25;96917.47;4197098;28;5620;-67
2021/12/03 09:37:03;;;;;;;;;;;;;;;2.15;60.05;96917.19;4218991;28;5605;-68
2021/12/03 09:39:06;;;;;;;;;;;;;;;2.23;59.97;96925.97;4201118;28;5631;-67
2021/12/03 09:41:07;;;;;;;;;;;;;;;2.27;59.82;96918.72;4219213;28;5852;-67
2021/12/03 09:43:09;;;;;;;;;;;;;;;2.12;59.62;96925.28;4201265;28;5748;-68
2021/12/03 09:45:11;;;;;;;;;;;;;;;2.21;60.00;96925.28;4218865;28;5632;-67
2021/12/03 09:47:17;;;;;;;;;;;;;;;2.18;58.96;96932.59;4219157;28;5729;-67
2021/12/03 09:51:54;;;;;;;;;;;;;;;2.24;59.73;96918.97;4219020;28;5604;-67
2021/12/03 09:56:08;;;;;;;;;;;;;;;2.36;57.79;96935.31;4218692;28;5068;-67
2021/12/03 09:58:22;;;;;;;;;;;;;;;2.16;57.77;96940.56;4200725;28;7647;-67
2021/12/03 10:10:01;;;;;;;;;;;;;;;2.05;58.83;96932.88;4201862;28;5628;-67
2021/12/03 10:18:58;;;;;;;;;;;;;;;2.19;58.88;96929.84;4200337;28;5635;-67
2021/12/03 10:21:20;;;;;;;;;;;;;;;2.29;59.89;96924.63;4218282;28;5613;-67
2021/12/03 10:26:26;;;;;;;;;;;;;;;2.17;60.86;96921.34;4218308;28;7668;-68
2021/12/03 10:31:18;;;;;;;;;;;;;;;2.46;59.92;96928.28;4218578;28;6286;-67
2021/12/03 10:43:09;;;;;;;;;;;;;;;2.31;59.68;96933.94;4218380;28;5724;-67
2021/12/03 10:45:31;;;;;;;;;;;;;;;2.50;60.27;96924.47;4216493;28;5614;-68
2021/12/03 10:47:43;;;;;;;;;;;;;;;2.56;59.92;96926.50;4201656;28;5643;-68
2021/12/03 10:50:08;;;;;;;;;;;;;;;2.72;60.26;96924.16;4201699;28;5639;-67
2021/12/03 11:11:42;;;;;;;;;;;;;;;2.55;60.25;96915.22;4186126;28;5758;-67
2021/12/03 11:28:40;;;;;;;;;;;;;;;2.65;59.90;96928.28;4184527;28;5650;-67
2021/12/03 12:10:06;;;;;;;;;;;;;;;2.74;58.65;96890.06;4185863;28;5774;-67
2021/12/03 13:15:36;;;;;;;;;;;;;;;3.30;63.37;96832.50;4219928;28;5658;-69
2021/12/03 14:00:14;;;;;;;;;;;;;;;3.03;63.10;96817.63;4168350;28;5785;-69
2021/12/03 14:21:39;;;;;;;;;;;;;;;3.32;62.78;96830.53;4179160;28;5736;-69
2021/12/03 14:44:26;;;;;;;;;;;;;;;3.44;62.50;96829.38;4195152;28;5695;-69
2021/12/03 14:48:48;;;;;;;;;;;;;;;3.19;61.94;96820.44;4194124;28;5632;-69
2021/12/03 14:55:53;;;;;;;;;;;;;;;3.10;61.43;96838.78;4197240;28;5691;-69
2021/12/03 14:58:14;;;;;;;;;;;;;;;3.18;61.98;96841.50;4194203;28;5702;-68
2021/12/03 15:02:40;;;;;;;;;;;;;;;3.20;61.57;96857.84;4184115;28;5752;-69
2021/12/03 15:04:59;;;;;;;;;;;;;;;3.14;61.13;96855.81;4190214;28;5853;-69
2021/12/03 15:09:36;;;;;;;;;;;;;;;3.20;61.23;96857.84;4170623;28;6545;-71
2021/12/03 15:12:12;;;;;;;;;;;;;;;3.30;60.98;96847.34;4180728;28;5814;-74
2021/12/03 15:27:50;;;;;;;;;;;;;;;2.95;60.58;96812.34;4212537;28;5958;-74
2021/12/03 15:38:56;;;;;;;;;;;;;;;3.05;60.17;96818.31;4150964;28;5831;-72
2021/12/03 16:03:43;;;;;;;;;;;;;;;3.01;61.13;96824.81;4225844;28;5448;-68
2021/12/03 16:10:15;;;;;;;;;;;;;;;2.91;61.51;96831.84;4200954;28;5718;-65
2021/12/03 16:12:36;;;;;;;;;;;;;;;2.73;62.38;96839.63;4205792;28;5127;-66
2021/12/03 16:47:22;;;;;;;;;;;;;;;2.98;64.73;96821.66;4150757;28;5920;-70
2021/12/03 16:52:02;;;;;;;;;;;;;;;2.97;64.49;96820.03;4168738;28;5852;-70
2021/12/03 16:54:41;;;;;;;;;;;;;;;2.85;64.77;96822.81;4169557;28;5859;-70
2021/12/03 16:56:46;;;;;;;;;;;;;;;2.84;64.73;96821.19;4169750;28;5851;-70
2021/12/03 16:58:47;;;;;;;;;;;;;;;2.97;64.40;96810.41;4150760;28;5794;-70
2021/12/03 17:01:05;;;;;;;;;;;;;;;2.94;64.24;96808.06;4167989;28;5843;-71
2021/12/03 17:03:22;;;;;;;;;;;;;;;2.86;64.16;96808.81;4169850;28;5820;-70
2021/12/03 17:05:46;;;;;;;;;;;;;;;2.95;64.15;96801.06;4168989;28;5836;-69
2021/12/03 17:12:30;;;;;;;;;;;;;;;3.14;63.11;96780.88;4169147;28;5956;-70
2021/12/03 17:19:39;;;;;;;;;;;;;;;2.85;62.01;96796.72;4182861;28;5823;-69
2021/12/03 17:59:09;;;;;;;;;;;;;;;2.92;63.49;96744.72;4182263;28;5822;-69
2021/12/03 18:02:46;;;;;;;;;;;;;;;2.75;62.13;96748.13;4182423;28;5831;-70
2021/12/03 18:11:35;;;;;;;;;;;;;;;2.79;62.64;96739.03;4182216;28;5915;-70
2021/12/03 18:43:50;;;;;;;;;;;;;;;2.97;64.77;96715.56;4215424;28;5707;-70
2021/12/03 18:52:49;;;;;;;;;;;;;;;2.89;64.90;96714.50;4215408;28;5719;-69
2021/12/03 18:57:27;;;;;;;;;;;;;;;2.67;66.30;96699.25;4163353;28;5780;-70
2021/12/03 18:59:29;;;;;;;;;;;;;;;2.80;65.61;96689.28;4215195;28;5707;-70
2021/12/03 19:01:32;;;;;;;;;;;;;;;2.75;65.09;96680.25;4197122;28;5746;-70
2021/12/03 19:03:58;;;;;;;;;;;;;;;2.86;63.94;96677.44;4215370;28;5820;-69
2021/12/03 19:08:13;;;;;;;;;;;;;;;2.58;65.45;96674.00;4215060;28;5536;-69
2021/12/03 19:10:21;;;;;;;;;;;;;;;2.52;65.41;96665.00;4197021;28;5746;-69
2021/12/03 19:12:26;;;;;;;;;;;;;;;2.63;64.46;96661.38;4215270;28;5635;-71
2021/12/03 19:14:33;;;;;;;;;;;;;;;2.72;64.15;96659.63;4180349;28;5973;-69
2021/12/03 19:16:36;;;;;;;;;;;;;;;2.84;64.00;96654.09;4215054;28;5719;-70
2021/12/03 19:18:43;;;;;;;;;;;;;;;2.81;63.91;96654.34;4180167;28;5909;-71
2021/12/03 19:20:45;;;;;;;;;;;;;;;2.87;63.73;96652.97;4215210;28;5699;-69
2021/12/03 19:22:48;;;;;;;;;;;;;;;2.88;63.26;96644.16;4217626;28;5708;-69
2021/12/03 19:24:56;;;;;;;;;;;;;;;2.71;63.52;96640.53;4199408;28;5735;-69
2021/12/03 19:26:57;;;;;;;;;;;;;;;2.79;63.92;96648.47;4183134;28;5765;-69
2021/12/03 19:29:00;;;;;;;;;;;;;;;2.67;63.06;96651.44;4200087;28;5746;-69
2021/12/03 19:31:05;;;;;;;;;;;;;;;2.86;63.52;96657.38;4201259;28;5813;-69
2021/12/03 19:33:07;;;;;;;;;;;;;;;2.88;63.25;96646.75;4183063;28;5749;-69
2021/12/03 19:35:08;;;;;;;;;;;;;;;2.71;62.79;96645.78;4201282;28;5800;-69
2021/12/03 19:37:11;;;;;;;;;;;;;;;2.58;63.27;96647.91;4201051;28;5780;-71
2021/12/03 19:39:15;;;;;;;;;;;;;;;2.66;64.45;96640.19;4201189;28;5812;-69
2021/12/03 19:41:33;;;;;;;;;;;;;;;2.80;64.87;96641.47;4201178;28;5074;-69
2021/12/03 19:43:42;;;;;;;;;;;;;;;2.71;64.69;96637.94;4199699;28;7812;-69
2021/12/03 19:45:53;;;;;;;;;;;;;;;2.78;65.38;96643.41;4199662;28;5749;-70
2021/12/03 19:52:43;;;;;;;;;;;;;;;2.90;66.08;96626.53;4165797;28;5764;-69
2021/12/03 19:54:45;;;;;;;;;;;;;;;2.96;65.96;96622.53;4165749;28;5796;-69
2021/12/03 19:56:48;;;;;;;;;;;;;;;2.85;66.84;96620.97;4165642;28;5765;-69
2021/12/03 19:58:50;;;;;;;;;;;;;;;2.88;66.24;96613.66;4165732;28;5804;-69
2021/12/03 20:00:52;;;;;;;;;;;;;;;2.98;66.12;96616.19;4148865;28;5978;-69
2021/12/03 20:02:53;;;;;;;;;;;;;;;3.07;65.88;96619.69;4139441;28;5885;-70
2021/12/03 20:04:55;;;;;;;;;;;;;;;2.90;66.74;96621.31;4132903;28;5706;-69
2021/12/03 20:06:57;;;;;;;;;;;;;;;3.03;65.50;96611.31;4165258;28;5917;-69
2021/12/03 20:09:01;;;;;;;;;;;;;;;3.00;64.71;96601.19;4165044;28;6527;-69
2021/12/03 20:11:09;;;;;;;;;;;;;;;2.86;64.77;96602.53;4165271;28;5866;-69
2021/12/03 20:13:13;;;;;;;;;;;;;;;3.00;64.67;96603.78;4147800;28;5707;-69
2021/12/03 20:15:24;;;;;;;;;;;;;;;3.00;64.08;96595.94;4165413;28;5779;-69
2021/12/03 20:17:32;;;;;;;;;;;;;;;2.99;63.97;96598.72;4165213;28;5812;-68
2021/12/03 20:19:36;;;;;;;;;;;;;;;3.01;64.22;96591.53;4165167;28;6452;-69
2021/12/03 20:21:45;;;;;;;;;;;;;;;2.92;65.32;96588.84;4165260;28;5806;-70
2021/12/03 20:29:56;;;;;;;;;;;;;;;2.74;66.81;96572.41;4182446;28;6470;-70
2021/12/03 20:32:42;;;;;;;;;;;;;;;2.92;66.66;96575.81;4183883;28;5806;-70
2021/12/03 20:34:43;;;;;;;;;;;;;;;2.99;66.07;96568.19;4171873;28;5226;-69
2021/12/03 20:39:02;;;;;;;;;;;;;;;2.84;66.80;96561.88;4183814;28;5869;-69
2021/12/03 20:41:09;;;;;;;;;;;;;;;2.98;66.54;96565.75;4182410;28;5773;-69
2021/12/03 20:49:40;;;;;;;;;;;;;;;2.93;67.18;96564.38;4172808;28;5840;-69
2021/12/03 20:54:06;;;;;;;;;;;;;;;2.90;67.08;96554.25;4183578;28;5806;-69
2021/12/03 21:09:56;;;;;;;;;;;;;;;2.74;64.94;96538.47;4170570;28;5831;-69
2021/12/03 21:12:02;;;;;;;;;;;;;;;2.84;65.51;96538.38;4179527;28;5669;-69
2021/12/03 21:14:08;;;;;;;;;;;;;;;2.75;65.37;96527.06;4198477;28;5755;-69
2021/12/03 21:19:02;;;;;;;;;;;;;;;2.79;65.77;96535.41;4183004;28;5927;-70
2021/12/03 21:22:50;;;;;;;;;;;;;;;2.81;66.85;96536.88;4183577;28;5720;-69
2021/12/03 21:24:57;;;;;;;;;;;;;;;2.80;67.20;96539.63;4187998;28;5695;-69
2021/12/03 21:27:06;;;;;;;;;;;;;;;2.87;66.59;96538.91;4213441;28;5628;-69
2021/12/03 21:29:36;;;;;;;;;;;;;;;2.78;66.96;96534.56;4219398;28;6317;-70
2021/12/03 21:31:50;;;;;;;;;;;;;;;2.87;65.79;96541.50;4203169;28;5722;-69
2021/12/03 21:42:57;;;;;;;;;;;;;;;2.90;66.21;96537.75;4184585;28;5839;-69
2021/12/03 21:45:00;;;;;;;;;;;;;;;2.70;66.78;96537.09;4200712;28;8205;-70
2021/12/03 21:47:02;;;;;;;;;;;;;;;2.76;67.24;96535.69;4186004;28;5807;-69
2021/12/03 21:49:05;;;;;;;;;;;;;;;2.90;66.55;96532.53;4197004;28;5643;-69
